createdAt,value
2023-02-07T00:01:52.227Z,7.85
2023-02-07T00:04:21.328Z,7.72
2023-02-07T00:06:50.425Z,7.90
2023-02-07T00:09:19.418Z,7.32
2023-02-07T00:11:49.908Z,8.57
2023-02-07T00:14:18.911Z,6.68
2023-02-07T00:16:47.935Z,7.72
2023-02-07T00:19:17.000Z,8.50
2023-02-07T00:21:46.420Z,10.00
2023-02-07T00:24:15.585Z,9.02
2023-02-07T00:26:47.401Z,8.95
2023-02-07T00:29:17.820Z,9.25
2023-02-07T00:31:47.142Z,8.30
2023-02-07T00:34:17.280Z,8.55
2023-02-07T00:36:46.268Z,9.60
2023-02-07T00:39:17.414Z,10.50
2023-02-07T00:41:47.396Z,14.82
2023-02-07T00:44:17.805Z,10.82
2023-02-07T00:46:47.393Z,12.20
2023-02-07T00:49:16.971Z,10.77
2023-02-07T00:51:46.023Z,9.05
2023-02-07T00:54:15.814Z,8.60
2023-02-07T00:56:46.196Z,8.73
2023-02-07T00:59:15.219Z,9.60
2023-02-07T01:01:45.734Z,7.55
2023-02-07T01:04:14.783Z,7.25
2023-02-07T01:06:43.823Z,8.30
2023-02-07T01:09:13.244Z,7.50
2023-02-07T01:11:42.378Z,6.97
2023-02-07T01:14:11.365Z,8.10
2023-02-07T01:16:40.330Z,6.60
2023-02-07T01:19:12.420Z,6.72
2023-02-07T01:21:41.523Z,7.30
2023-02-07T01:24:11.104Z,7.05
2023-02-07T01:26:40.805Z,7.00
2023-02-07T01:29:10.989Z,6.85
2023-02-07T01:31:40.140Z,6.47
2023-02-07T01:34:14.640Z,6.75
2023-02-07T01:36:43.698Z,6.18
2023-02-07T01:39:14.623Z,6.13
2023-02-07T01:41:43.751Z,6.65
2023-02-07T01:44:45.694Z,6.43
2023-02-07T01:47:19.438Z,6.35
2023-02-07T01:49:52.454Z,6.50
2023-02-07T01:52:26.016Z,5.85
2023-02-07T01:55:01.744Z,6.63
2023-02-07T01:57:31.531Z,6.45
2023-02-07T02:00:01.756Z,5.97
2023-02-07T02:02:36.568Z,6.70
2023-02-07T02:05:08.543Z,7.30
2023-02-07T02:07:39.891Z,6.55
2023-02-07T02:10:15.378Z,6.75
2023-02-07T02:13:01.110Z,6.72
2023-02-07T02:15:36.969Z,6.50
2023-02-07T02:18:37.522Z,6.45
2023-02-07T02:21:45.891Z,7.50
2023-02-07T02:24:58.553Z,7.35
2023-02-07T02:27:42.799Z,9.32
2023-02-07T02:30:45.474Z,9.43
2023-02-07T02:33:43.751Z,11.27
2023-02-07T02:36:23.328Z,10.02
2023-02-07T02:38:59.032Z,10.23
2023-02-07T02:41:32.763Z,9.68
2023-02-07T02:44:08.839Z,8.48
2023-02-07T02:46:42.854Z,8.80
2023-02-07T02:49:16.356Z,8.70
2023-02-07T02:51:45.390Z,8.82
2023-02-07T02:54:30.289Z,9.80
2023-02-07T02:57:16.717Z,8.50
2023-02-07T03:00:06.654Z,7.67
2023-02-07T03:02:44.803Z,7.70
2023-02-07T03:05:27.463Z,6.88
2023-02-07T03:08:04.868Z,7.00
2023-02-07T03:10:46.735Z,7.20
2023-02-07T03:13:23.469Z,8.82
2023-02-07T03:16:04.908Z,7.78
2023-02-07T03:18:46.313Z,8.00
2023-02-07T03:21:23.377Z,8.90
2023-02-07T03:23:57.380Z,7.35
2023-02-07T03:26:30.338Z,8.15
2023-02-07T03:29:00.959Z,7.43
2023-02-07T03:31:32.833Z,7.40
2023-02-07T03:34:09.666Z,7.10
2023-02-07T03:36:43.910Z,7.72
2023-02-07T03:39:13.102Z,8.47
2023-02-07T03:41:45.933Z,7.10
2023-02-07T03:44:18.631Z,9.35
2023-02-07T03:46:50.462Z,7.40
2023-02-07T03:49:19.619Z,6.90
2023-02-07T03:51:50.550Z,7.28
2023-02-07T03:54:19.797Z,6.57
2023-02-07T03:56:49.014Z,7.05
2023-02-07T03:59:17.956Z,7.18
2023-02-07T04:01:47.069Z,8.02
2023-02-07T04:04:16.079Z,7.10
2023-02-07T04:06:45.161Z,8.32
2023-02-07T04:09:15.695Z,8.27
2023-02-07T04:11:44.819Z,7.68
2023-02-07T04:14:13.941Z,8.48
2023-02-07T04:16:43.045Z,7.72
2023-02-07T04:19:12.216Z,6.97
2023-02-07T04:21:41.349Z,7.25
2023-02-07T04:24:10.885Z,6.35
2023-02-07T04:26:41.307Z,6.45
2023-02-07T04:29:10.482Z,7.70
2023-02-07T04:31:40.452Z,6.63
2023-02-07T04:34:09.877Z,7.72
2023-02-07T04:36:38.940Z,6.03
2023-02-07T04:39:07.950Z,6.75
2023-02-07T04:41:37.222Z,6.47
2023-02-07T04:44:07.741Z,6.30
2023-02-07T04:46:36.776Z,6.57
2023-02-07T04:49:05.875Z,6.68
2023-02-07T04:51:34.978Z,6.70
2023-02-07T04:54:04.686Z,6.03
2023-02-07T04:56:36.106Z,5.50
2023-02-07T04:59:05.515Z,5.00
2023-02-07T05:01:36.057Z,7.03
2023-02-07T05:04:05.330Z,6.05
2023-02-07T05:06:34.395Z,7.10
2023-02-07T05:09:03.526Z,5.70
2023-02-07T05:11:32.514Z,5.90
2023-02-07T05:14:01.586Z,6.10
2023-02-07T05:16:30.724Z,6.70
2023-02-07T05:19:01.360Z,5.97
2023-02-07T05:21:30.653Z,6.68
2023-02-07T05:23:59.625Z,5.95
2023-02-07T05:26:28.840Z,5.82
2023-02-07T05:28:57.863Z,6.13
2023-02-07T05:31:47.522Z,6.68
2023-02-07T05:34:16.987Z,8.02
2023-02-07T05:36:46.180Z,6.93
2023-02-07T05:39:15.248Z,6.05
2023-02-07T05:41:44.426Z,6.85
2023-02-07T05:44:13.514Z,7.38
2023-02-07T05:46:42.826Z,7.03
2023-02-07T05:49:11.972Z,7.60
2023-02-07T05:51:42.892Z,6.82
2023-02-07T05:54:11.878Z,6.93
2023-02-07T05:56:40.864Z,7.30
2023-02-07T05:59:10.051Z,8.15
2023-02-07T06:01:39.654Z,7.97
2023-02-07T06:04:08.806Z,8.35
2023-02-07T06:06:39.994Z,7.88
2023-02-07T06:09:10.500Z,8.63
2023-02-07T06:11:39.648Z,7.05
2023-02-07T06:14:09.010Z,7.55
2023-02-07T06:16:38.013Z,7.15
2023-02-07T06:19:06.975Z,8.80
2023-02-07T06:21:46.173Z,7.57
2023-02-07T06:24:17.884Z,6.40
2023-02-07T06:26:47.064Z,7.57
2023-02-07T06:29:16.234Z,7.53
2023-02-07T06:31:45.401Z,7.93
2023-02-07T06:34:14.446Z,7.38
2023-02-07T06:36:43.466Z,7.20
2023-02-07T06:39:12.741Z,6.75
2023-02-07T06:41:43.197Z,7.43
2023-02-07T06:44:12.777Z,6.90
2023-02-07T06:46:41.882Z,7.60
2023-02-07T06:49:12.215Z,7.95
2023-02-07T06:51:41.310Z,6.30
2023-02-07T06:54:10.603Z,6.22
2023-02-07T06:56:39.636Z,6.38
2023-02-07T06:59:10.269Z,6.25
2023-02-07T07:01:39.403Z,6.25
2023-02-07T07:04:08.439Z,6.15
2023-02-07T07:06:37.852Z,5.45
2023-02-07T07:09:06.877Z,5.85
2023-02-07T07:11:36.386Z,5.25
2023-02-07T07:14:05.359Z,5.57
2023-02-07T07:16:35.779Z,5.30
2023-02-07T07:19:05.290Z,6.63
2023-02-07T07:21:34.574Z,6.40
2023-02-07T07:24:04.186Z,6.40
2023-02-07T07:26:47.046Z,5.40
2023-02-07T07:29:18.751Z,5.82
2023-02-07T07:31:49.414Z,5.50
2023-02-07T07:34:18.467Z,4.60
2023-02-07T07:36:47.512Z,5.47
2023-02-07T07:39:17.230Z,5.47
2023-02-07T07:41:46.274Z,6.07
2023-02-07T07:44:30.226Z,5.80
2023-02-07T07:47:00.672Z,5.78
2023-02-07T07:49:29.955Z,5.93
2023-02-07T07:51:59.063Z,6.18
2023-02-07T07:54:28.359Z,6.35
2023-02-07T07:56:57.549Z,6.70
2023-02-07T07:59:26.740Z,7.70
2023-02-07T08:01:56.646Z,6.63
2023-02-07T08:15:55.063Z,7.35
2023-02-07T08:18:24.113Z,6.47
2023-02-07T08:20:53.278Z,8.30
2023-02-07T08:23:22.636Z,6.97
2023-02-07T08:25:51.765Z,7.57
2023-02-07T08:28:21.257Z,6.90
2023-02-07T08:30:50.599Z,6.82
2023-02-07T08:33:21.028Z,6.70
2023-02-07T08:35:52.149Z,6.22
2023-02-07T08:38:21.406Z,5.53
2023-02-07T08:40:51.135Z,5.07
2023-02-07T08:43:20.264Z,5.43
2023-02-07T08:45:50.328Z,5.47
2023-02-07T08:48:20.978Z,5.40
2023-02-07T08:50:50.033Z,5.68
2023-02-07T08:53:19.486Z,5.20
2023-02-07T08:55:48.982Z,5.18
2023-02-07T08:58:18.022Z,6.65
2023-02-07T09:00:47.263Z,5.72
2023-02-07T09:03:16.642Z,5.28
2023-02-07T09:05:47.401Z,5.40
2023-02-07T09:08:17.119Z,5.45
2023-02-07T09:10:47.577Z,5.10
2023-02-07T09:13:16.741Z,6.50
2023-02-07T09:15:45.744Z,5.60
2023-02-07T09:18:14.790Z,5.88
2023-02-07T09:20:46.773Z,7.25
2023-02-07T09:23:21.551Z,7.88
2023-02-07T09:25:52.607Z,7.25
2023-02-07T09:28:23.640Z,8.05
2023-02-07T09:30:53.198Z,7.22
2023-02-07T09:33:23.516Z,7.18
2023-02-07T09:35:54.906Z,6.82
2023-02-07T09:38:26.560Z,6.68
2023-02-07T09:40:58.095Z,7.00
2023-02-07T09:43:39.266Z,7.13
2023-02-07T09:46:19.137Z,7.30
2023-02-07T09:48:53.662Z,8.73
2023-02-07T09:51:25.122Z,8.50
2023-02-07T09:53:59.472Z,7.80
2023-02-07T09:56:31.032Z,8.18
2023-02-07T09:59:05.341Z,9.05
2023-02-07T10:01:38.518Z,8.13
2023-02-07T10:04:23.656Z,7.82
2023-02-07T10:06:57.368Z,8.80
2023-02-07T10:09:29.321Z,8.32
2023-02-07T10:12:06.652Z,8.57
2023-02-07T10:14:56.753Z,8.98
2023-02-07T10:17:41.952Z,9.38
2023-02-07T10:20:31.002Z,9.02
2023-02-07T10:23:11.279Z,9.50
2023-02-07T10:25:48.778Z,7.82
2023-02-07T10:28:43.034Z,8.30
2023-02-07T10:31:16.643Z,8.02
2023-02-07T10:33:50.555Z,8.02
2023-02-07T10:36:20.174Z,8.57
2023-02-07T10:39:08.555Z,7.50
2023-02-07T10:41:40.195Z,6.05
2023-02-07T10:44:13.410Z,7.50
2023-02-07T10:46:51.866Z,7.25
2023-02-07T10:49:26.448Z,7.30
2023-02-07T10:51:59.062Z,6.28
2023-02-07T10:54:29.867Z,7.22
2023-02-07T10:57:02.439Z,7.00
2023-02-07T10:59:40.805Z,6.25
2023-02-07T11:02:39.800Z,7.05
2023-02-07T11:05:31.088Z,5.60
2023-02-07T11:08:01.844Z,6.43
2023-02-07T11:10:37.187Z,5.32
2023-02-07T11:15:41.106Z,6.22
2023-02-07T11:18:28.051Z,6.95
2023-02-07T11:20:57.353Z,4.07
2023-02-07T11:23:27.075Z,6.90
2023-02-07T11:25:58.528Z,7.00
2023-02-07T11:28:30.913Z,6.00
2023-02-07T11:31:04.466Z,6.88
2023-02-07T11:33:36.520Z,6.82
2023-02-07T11:36:12.059Z,7.07
2023-02-07T11:38:42.632Z,7.18
2023-02-07T11:41:20.965Z,8.38
2023-02-07T11:43:59.036Z,6.43
2023-02-07T11:46:39.558Z,5.60
2023-02-07T11:49:20.235Z,7.68
2023-02-07T11:51:53.140Z,6.32
2023-02-07T11:54:22.262Z,6.32
2023-02-07T11:56:55.658Z,6.32
2023-02-07T11:59:28.353Z,7.10
2023-02-07T12:02:00.108Z,6.63
2023-02-07T12:04:34.924Z,6.75
2023-02-07T12:07:07.605Z,6.78
2023-02-07T12:09:42.469Z,6.43
2023-02-07T12:12:17.790Z,7.05
2023-02-07T12:17:26.384Z,6.80
2023-02-07T12:20:00.904Z,7.15
2023-02-07T12:22:42.088Z,6.28
2023-02-07T12:25:21.462Z,9.70
2023-02-07T12:27:56.744Z,7.40
2023-02-07T12:33:11.475Z,7.57
2023-02-07T12:35:56.932Z,8.48
2023-02-07T12:38:28.936Z,8.90
2023-02-07T12:41:04.474Z,9.15
2023-02-07T12:43:38.266Z,9.02
2023-02-07T12:46:23.949Z,9.48
2023-02-07T12:49:28.632Z,8.85
2023-02-07T12:52:18.321Z,8.35
2023-02-07T12:55:03.677Z,8.57
2023-02-07T12:57:38.927Z,8.52
2023-02-07T13:02:58.453Z,7.43
2023-02-07T13:05:42.501Z,9.57
2023-02-07T13:08:24.511Z,8.70
2023-02-07T13:11:02.298Z,7.88
2023-02-07T13:13:35.401Z,9.05
2023-02-07T13:16:12.377Z,8.55
2023-02-07T13:18:51.165Z,9.55
2023-02-07T13:21:27.984Z,8.43
2023-02-07T13:24:01.755Z,7.90
2023-02-07T13:26:32.764Z,7.88
2023-02-07T13:29:05.136Z,8.40
2023-02-07T13:31:41.113Z,7.45
2023-02-07T13:34:16.597Z,7.68
2023-02-07T13:36:48.940Z,7.95
2023-02-07T13:39:27.751Z,8.73
2023-02-07T13:42:07.902Z,5.82
2023-02-07T13:44:44.512Z,9.38
2023-02-07T13:47:38.065Z,8.80
2023-02-07T13:50:18.646Z,9.30
2023-02-07T13:52:55.379Z,9.73
2023-02-07T13:55:32.013Z,8.75
2023-02-07T13:58:18.635Z,8.63
2023-02-07T14:01:11.882Z,8.23
2023-02-07T14:03:42.980Z,9.38
2023-02-07T14:06:18.538Z,9.05
2023-02-07T14:08:58.939Z,8.18
2023-02-07T14:11:36.486Z,9.20
2023-02-07T14:14:16.768Z,8.63
2023-02-07T14:16:49.116Z,8.07
2023-02-07T14:19:53.000Z,8.73
2023-02-07T14:22:27.164Z,8.98
2023-02-07T14:25:24.570Z,9.15
2023-02-07T14:28:20.426Z,8.40
2023-02-07T14:31:14.740Z,8.95
2023-02-07T14:34:03.835Z,7.60
2023-02-07T14:36:34.500Z,8.02
2023-02-07T14:39:22.265Z,8.10
2023-02-07T14:41:53.715Z,9.00
2023-02-07T14:44:26.882Z,8.15
2023-02-07T14:46:59.505Z,7.72
2023-02-07T14:49:34.547Z,7.22
2023-02-07T14:52:08.275Z,7.50
2023-02-07T14:54:44.300Z,6.95
2023-02-07T14:57:27.873Z,7.32
2023-02-07T15:00:03.090Z,7.75
2023-02-07T15:02:38.166Z,7.78
2023-02-07T15:05:19.413Z,8.18
2023-02-07T15:07:55.456Z,8.00
2023-02-07T15:10:27.538Z,8.45
2023-02-07T15:12:57.272Z,7.50
2023-02-07T15:15:29.031Z,7.95
2023-02-07T15:18:01.203Z,7.65
2023-02-07T15:20:33.217Z,7.75
2023-02-07T15:23:08.640Z,8.13
2023-02-07T15:25:41.993Z,6.88
2023-02-07T15:28:29.194Z,6.43
2023-02-07T15:31:04.325Z,8.20
2023-02-07T15:33:37.042Z,6.47
2023-02-07T15:36:07.254Z,7.10
2023-02-07T15:38:37.872Z,7.63
2023-02-07T15:41:07.731Z,6.38
2023-02-07T15:43:37.348Z,8.00
2023-02-07T15:46:09.658Z,7.25
2023-02-07T15:48:50.230Z,6.95
2023-02-07T15:51:28.288Z,5.85
2023-02-07T15:54:01.626Z,7.50
2023-02-07T15:56:32.002Z,6.93
2023-02-07T15:59:11.038Z,7.10
2023-02-07T16:01:41.631Z,6.55
2023-02-07T16:04:10.822Z,6.40
2023-02-07T16:06:56.503Z,7.28
2023-02-07T16:09:41.474Z,7.68
2023-02-07T16:12:32.052Z,7.75
2023-02-07T16:15:02.498Z,7.63
2023-02-07T16:17:42.156Z,6.97
2023-02-07T16:20:16.089Z,6.57
2023-02-07T16:22:46.991Z,7.63
2023-02-07T16:25:23.040Z,6.57
2023-02-07T16:27:53.914Z,6.20
2023-02-07T16:30:26.596Z,6.75
2023-02-07T16:32:55.867Z,6.20
2023-02-07T16:35:26.924Z,7.53
2023-02-07T16:37:56.284Z,7.43
2023-02-07T16:40:28.069Z,6.75
2023-02-07T16:43:01.945Z,7.18
2023-02-07T16:45:40.201Z,7.68
2023-02-07T16:48:15.505Z,11.38
2023-02-07T16:50:45.415Z,7.72
2023-02-07T16:53:15.053Z,8.25
2023-02-07T16:55:45.596Z,8.40
2023-02-07T16:58:25.645Z,6.53
2023-02-07T17:00:57.774Z,6.28
2023-02-07T17:03:29.326Z,6.82
2023-02-07T17:05:59.425Z,7.25
2023-02-07T17:08:30.825Z,6.57
2023-02-07T17:11:05.809Z,7.10
2023-02-07T17:13:35.365Z,6.55
2023-02-07T17:16:05.615Z,9.25
2023-02-07T17:18:38.456Z,7.15
2023-02-07T17:21:13.839Z,7.40
2023-02-07T17:23:44.679Z,8.68
2023-02-07T17:26:23.507Z,7.53
2023-02-07T17:28:53.353Z,7.20
2023-02-07T17:31:23.484Z,7.05
2023-02-07T17:33:53.492Z,7.65
2023-02-07T17:36:23.279Z,7.95
2023-02-07T17:38:53.174Z,7.75
2023-02-07T17:41:25.525Z,6.97
2023-02-07T17:43:55.324Z,7.03
2023-02-07T17:46:27.072Z,7.43
2023-02-07T17:48:56.883Z,5.80
2023-02-07T17:51:33.531Z,7.03
2023-02-07T17:54:04.950Z,6.78
2023-02-07T17:56:36.292Z,6.30
2023-02-07T17:59:09.803Z,6.35
2023-02-07T18:01:39.482Z,7.15
2023-02-07T18:04:08.764Z,6.38
2023-02-07T18:06:37.833Z,6.38
2023-02-07T18:09:06.990Z,5.75
2023-02-07T18:11:38.431Z,5.82
2023-02-07T18:14:07.482Z,6.78
2023-02-07T18:16:36.672Z,6.63
2023-02-07T18:19:05.903Z,7.18
2023-02-07T18:21:36.756Z,6.72
2023-02-07T18:24:06.161Z,7.03
2023-02-07T18:26:35.351Z,7.18
2023-02-07T18:29:06.003Z,6.78
2023-02-07T18:31:35.215Z,6.35
2023-02-07T18:34:04.287Z,7.55
2023-02-07T18:36:40.533Z,7.85
2023-02-07T18:39:11.357Z,7.25
2023-02-07T18:41:40.677Z,8.93
2023-02-07T18:44:11.113Z,9.57
2023-02-07T18:46:40.583Z,7.25
2023-02-07T18:49:13.455Z,6.95
2023-02-07T18:51:45.957Z,6.97
2023-02-07T18:54:15.069Z,7.32
2023-02-07T18:56:47.796Z,7.45
2023-02-07T18:59:18.338Z,6.38
2023-02-07T19:01:48.473Z,6.20
2023-02-07T19:04:18.556Z,6.95
2023-02-07T19:06:49.380Z,6.50
2023-02-07T19:09:19.807Z,7.38
2023-02-07T19:11:51.606Z,6.80
2023-02-07T19:14:24.264Z,6.55
2023-02-07T19:16:56.100Z,6.80
2023-02-07T19:19:28.250Z,6.63
2023-02-07T19:21:58.067Z,6.40
2023-02-07T19:24:27.747Z,6.68
2023-02-07T19:26:59.542Z,6.85
2023-02-07T19:29:30.820Z,6.03
2023-02-07T19:32:02.728Z,6.97
2023-02-07T19:34:32.606Z,6.60
2023-02-07T19:37:02.483Z,8.18
2023-02-07T19:39:33.507Z,5.80
2023-02-07T19:42:02.728Z,6.60
2023-02-07T19:44:33.317Z,6.10
2023-02-07T19:47:02.337Z,5.97
2023-02-07T19:49:31.382Z,6.07
2023-02-07T19:52:00.362Z,7.80
2023-02-07T19:54:31.494Z,7.53
2023-02-07T19:57:01.873Z,5.35
2023-02-07T19:59:32.947Z,7.20
2023-02-07T20:02:02.197Z,6.88
2023-02-07T20:04:35.231Z,6.55
2023-02-07T20:07:04.597Z,6.03
2023-02-07T20:09:34.048Z,6.78
2023-02-07T20:12:03.284Z,6.90
2023-02-07T20:14:33.711Z,6.50
2023-02-07T20:17:02.704Z,7.00
2023-02-07T20:19:31.763Z,5.97
2023-02-07T20:22:00.760Z,5.93
2023-02-07T20:24:30.011Z,5.47
2023-02-07T20:26:59.281Z,5.05
2023-02-07T20:29:28.573Z,6.20
2023-02-07T20:32:00.054Z,5.10
2023-02-07T20:34:29.367Z,5.97
2023-02-07T20:36:58.731Z,6.93
2023-02-07T20:39:30.779Z,6.88
2023-02-07T20:42:00.445Z,4.93
2023-02-07T20:44:32.622Z,6.50
2023-02-07T20:47:04.808Z,5.05
2023-02-07T20:49:34.366Z,4.78
2023-02-07T20:52:04.407Z,5.07
2023-02-07T20:54:34.183Z,5.63
2023-02-07T20:57:07.360Z,6.30
2023-02-07T20:59:37.228Z,6.32
2023-02-07T21:02:08.423Z,7.25
2023-02-07T21:04:39.613Z,6.63
2023-02-07T21:07:08.959Z,6.53
2023-02-07T21:09:38.559Z,5.30
2023-02-07T21:12:08.398Z,4.93
2023-02-07T21:14:37.650Z,6.28
2023-02-07T21:17:08.672Z,5.88
2023-02-07T21:19:38.535Z,5.15
2023-02-07T21:22:09.334Z,5.30
2023-02-07T21:24:38.732Z,5.35
2023-02-07T21:27:08.234Z,5.30
2023-02-07T21:29:38.832Z,5.45
2023-02-07T21:32:09.759Z,6.78
2023-02-07T21:34:39.509Z,5.65
2023-02-07T21:37:08.772Z,5.60
2023-02-07T21:39:37.790Z,5.35
2023-02-07T21:42:06.912Z,6.45
2023-02-07T21:44:36.049Z,4.32
2023-02-07T21:47:05.342Z,6.78
2023-02-07T21:49:35.998Z,5.85
2023-02-07T21:52:05.420Z,6.57
2023-02-07T21:54:34.726Z,6.45
2023-02-07T21:57:04.489Z,4.97
2023-02-07T21:59:33.811Z,5.50
2023-02-07T22:02:03.964Z,6.65
2023-02-07T22:04:33.205Z,7.07
2023-02-07T22:07:03.706Z,5.82
2023-02-07T22:09:33.046Z,5.25
2023-02-07T22:12:02.240Z,4.25
2023-02-07T22:14:31.281Z,5.55
2023-02-07T22:17:00.342Z,5.50
2023-02-07T22:19:29.319Z,3.38
2023-02-07T22:21:59.155Z,5.15
2023-02-07T22:24:31.888Z,4.78
2023-02-07T22:27:00.995Z,5.32
2023-02-07T22:29:29.997Z,6.63
2023-02-07T22:31:59.177Z,6.38
2023-02-07T22:34:28.276Z,5.05
2023-02-07T22:36:57.502Z,4.35
2023-02-07T22:39:26.470Z,5.30
2023-02-07T22:41:58.251Z,5.88
2023-02-07T22:44:27.224Z,3.20
2023-02-07T22:46:56.220Z,5.53
2023-02-07T22:49:25.196Z,5.97
2023-02-07T22:51:54.149Z,5.88
2023-02-07T22:54:23.263Z,5.07
2023-02-07T22:56:52.332Z,5.57
2023-02-07T22:59:22.726Z,5.70
2023-02-07T23:01:51.724Z,5.57
2023-02-07T23:04:21.572Z,5.32
2023-02-07T23:06:50.579Z,5.68
2023-02-07T23:09:19.564Z,5.47
2023-02-07T23:11:48.563Z,6.35
2023-02-07T23:14:17.675Z,5.40
2023-02-07T23:16:48.172Z,5.45
2023-02-07T23:19:19.486Z,4.95
2023-02-07T23:21:48.466Z,5.22
2023-02-07T23:24:17.834Z,4.03
2023-02-07T23:26:47.008Z,4.88
2023-02-07T23:29:16.145Z,5.05
2023-02-07T23:31:45.289Z,4.78
2023-02-07T23:34:15.948Z,4.65
2023-02-07T23:36:44.960Z,6.75
2023-02-07T23:39:14.174Z,5.82
2023-02-07T23:41:43.203Z,5.45
2023-02-07T23:44:12.294Z,5.03
2023-02-07T23:46:41.493Z,5.40
2023-02-07T23:49:11.428Z,3.63
2023-02-07T23:51:41.789Z,4.78
2023-02-07T23:54:10.733Z,5.15
2023-02-07T23:56:39.741Z,5.85
2023-02-07T23:59:08.741Z,5.00
